sensor_id;sensor_type;location;lat;lon;timestamp;temperature;humidity
67603;DHT22;54417;47.454;18.918;2024-03-02T00:01:17;9.46;90.04
67603;DHT22;54417;47.454;18.918;2024-03-02T00:06:26;9.37;90.70
67603;DHT22;54417;47.454;18.918;2024-03-02T00:11:34;9.51;90.31
67603;DHT22;54417;47.454;18.918;2024-03-02T00:16:43;9.62;89.64
67603;DHT22;54417;47.454;18.918;2024-03-02T00:21:52;9.60;88.88
67603;DHT22;54417;47.454;18.918;2024-03-02T00:26:57;9.52;88.89
67603;DHT22;54417;47.454;18.918;2024-03-02T00:32:02;9.46;89.05
67603;DHT22;54417;47.454;18.918;2024-03-02T00:37:11;9.37;89.04
67603;DHT22;54417;47.454;18.918;2024-03-02T00:42:21;9.20;89.65
67603;DHT22;54417;47.454;18.918;2024-03-02T00:47:31;9.15;90.11
67603;DHT22;54417;47.454;18.918;2024-03-02T00:52:40;9.24;90.04
67603;DHT22;54417;47.454;18.918;2024-03-02T00:57:50;9.16;90.44
67603;DHT22;54417;47.454;18.918;2024-03-02T01:02:54;9.26;90.24
67603;DHT22;54417;47.454;18.918;2024-03-02T01:08:03;9.40;89.36
67603;DHT22;54417;47.454;18.918;2024-03-02T01:13:14;9.43;88.93
67603;DHT22;54417;47.454;18.918;2024-03-02T01:18:22;9.39;88.52
67603;DHT22;54417;47.454;18.918;2024-03-02T01:23:26;9.43;87.75
67603;DHT22;54417;47.454;18.918;2024-03-02T01:28:36;9.31;87.65
67603;DHT22;54417;47.454;18.918;2024-03-02T01:33:45;9.18;87.79
67603;DHT22;54417;47.454;18.918;2024-03-02T01:38:54;9.20;87.59
67603;DHT22;54417;47.454;18.918;2024-03-02T01:44:04;8.99;88.28
67603;DHT22;54417;47.454;18.918;2024-03-02T01:49:13;8.95;88.42
67603;DHT22;54417;47.454;18.918;2024-03-02T01:54:21;8.98;88.42
67603;DHT22;54417;47.454;18.918;2024-03-02T01:59:32;8.93;88.89
67603;DHT22;54417;47.454;18.918;2024-03-02T02:04:41;9.05;88.92
67603;DHT22;54417;47.454;18.918;2024-03-02T02:09:49;8.96;89.10
67603;DHT22;54417;47.454;18.918;2024-03-02T02:15:00;8.83;89.10
67603;DHT22;54417;47.454;18.918;2024-03-02T02:20:09;9.00;88.89
67603;DHT22;54417;47.454;18.918;2024-03-02T02:25:19;9.05;88.77
67603;DHT22;54417;47.454;18.918;2024-03-02T02:30:29;9.02;88.75
67603;DHT22;54417;47.454;18.918;2024-03-02T02:35:38;9.06;88.16
67603;DHT22;54417;47.454;18.918;2024-03-02T02:40:43;9.06;88.37
67603;DHT22;54417;47.454;18.918;2024-03-02T02:45:47;9.15;87.52
67603;DHT22;54417;47.454;18.918;2024-03-02T02:50:51;9.09;87.30
67603;DHT22;54417;47.454;18.918;2024-03-02T02:55:56;9.12;87.22
67603;DHT22;54417;47.454;18.918;2024-03-02T03:00:59;9.05;87.78
67603;DHT22;54417;47.454;18.918;2024-03-02T03:06:09;9.06;87.51
67603;DHT22;54417;47.454;18.918;2024-03-02T03:11:19;9.03;87.92
67603;DHT22;54417;47.454;18.918;2024-03-02T03:16:23;9.00;88.08
67603;DHT22;54417;47.454;18.918;2024-03-02T03:21:32;8.96;88.61
67603;DHT22;54417;47.454;18.918;2024-03-02T03:26:50;8.96;88.10
67603;DHT22;54417;47.454;18.918;2024-03-02T03:31:58;8.98;87.39
67603;DHT22;54417;47.454;18.918;2024-03-02T03:37:02;9.05;87.04
67603;DHT22;54417;47.454;18.918;2024-03-02T03:42:12;9.05;87.19
67603;DHT22;54417;47.454;18.918;2024-03-02T03:47:16;9.16;87.19
67603;DHT22;54417;47.454;18.918;2024-03-02T03:52:25;9.20;87.55
67603;DHT22;54417;47.454;18.918;2024-03-02T03:57:35;9.13;87.96
67603;DHT22;54417;47.454;18.918;2024-03-02T04:02:44;9.12;87.65
67603;DHT22;54417;47.454;18.918;2024-03-02T04:07:47;9.10;88.63
67603;DHT22;54417;47.454;18.918;2024-03-02T04:12:52;9.00;88.77
67603;DHT22;54417;47.454;18.918;2024-03-02T04:17:56;9.00;88.64
67603;DHT22;54417;47.454;18.918;2024-03-02T04:23:05;8.90;89.29
67603;DHT22;54417;47.454;18.918;2024-03-02T04:28:16;8.88;89.68
67603;DHT22;54417;47.454;18.918;2024-03-02T04:33:25;8.85;89.89
67603;DHT22;54417;47.454;18.918;2024-03-02T04:38:34;8.76;90.21
67603;DHT22;54417;47.454;18.918;2024-03-02T04:43:44;8.69;90.93
67603;DHT22;54417;47.454;18.918;2024-03-02T04:48:53;8.82;91.34
67603;DHT22;54417;47.454;18.918;2024-03-02T04:54:04;8.78;91.85
67603;DHT22;54417;47.454;18.918;2024-03-02T04:59:14;8.67;92.66
67603;DHT22;54417;47.454;18.918;2024-03-02T05:04:18;8.61;93.13
67603;DHT22;54417;47.454;18.918;2024-03-02T05:09:27;8.48;93.34
67603;DHT22;54417;47.454;18.918;2024-03-02T05:14:32;8.45;94.04
67603;DHT22;54417;47.454;18.918;2024-03-02T05:19:40;8.41;94.25
67603;DHT22;54417;47.454;18.918;2024-03-02T05:24:49;8.51;94.12
67603;DHT22;54417;47.454;18.918;2024-03-02T05:29:54;8.44;94.41
67603;DHT22;54417;47.454;18.918;2024-03-02T05:35:04;8.42;94.75
67603;DHT22;54417;47.454;18.918;2024-03-02T05:40:13;8.51;94.71
67603;DHT22;54417;47.454;18.918;2024-03-02T05:45:23;8.47;94.73
67603;DHT22;54417;47.454;18.918;2024-03-02T05:50:27;8.51;94.67
67603;DHT22;54417;47.454;18.918;2024-03-02T05:55:31;8.47;95.19
67603;DHT22;54417;47.454;18.918;2024-03-02T06:00:41;8.45;95.25
67603;DHT22;54417;47.454;18.918;2024-03-02T06:05:50;8.55;95.22
67603;DHT22;54417;47.454;18.918;2024-03-02T06:10:59;8.61;95.11
67603;DHT22;54417;47.454;18.918;2024-03-02T06:16:09;8.64;95.25
67603;DHT22;54417;47.454;18.918;2024-03-02T06:21:16;8.60;95.30
67603;DHT22;54417;47.454;18.918;2024-03-02T06:26:20;8.60;95.28
67603;DHT22;54417;47.454;18.918;2024-03-02T06:31:33;8.83;94.77
67603;DHT22;54417;47.454;18.918;2024-03-02T06:36:42;8.73;95.14
67603;DHT22;54417;47.454;18.918;2024-03-02T06:41:46;8.72;95.02
67603;DHT22;54417;47.454;18.918;2024-03-02T06:46:56;8.82;95.39
67603;DHT22;54417;47.454;18.918;2024-03-02T06:52:05;8.86;94.83
67603;DHT22;54417;47.454;18.918;2024-03-02T06:57:12;8.98;94.62
67603;DHT22;54417;47.454;18.918;2024-03-02T07:02:17;8.92;94.70
67603;DHT22;54417;47.454;18.918;2024-03-02T07:07:26;8.96;94.91
67603;DHT22;54417;47.454;18.918;2024-03-02T07:12:35;9.05;94.24
67603;DHT22;54417;47.454;18.918;2024-03-02T07:17:45;9.22;94.10
67603;DHT22;54417;47.454;18.918;2024-03-02T07:22:53;9.36;93.61
67603;DHT22;54417;47.454;18.918;2024-03-02T07:28:02;9.36;93.63
67603;DHT22;54417;47.454;18.918;2024-03-02T07:33:13;9.34;93.28
67603;DHT22;54417;47.454;18.918;2024-03-02T07:38:19;9.33;93.92
67603;DHT22;54417;47.454;18.918;2024-03-02T07:43:28;9.39;93.73
67603;DHT22;54417;47.454;18.918;2024-03-02T07:48:38;9.57;93.71
67603;DHT22;54417;47.454;18.918;2024-03-02T07:53:42;9.55;93.55
67603;DHT22;54417;47.454;18.918;2024-03-02T07:58:53;9.37;93.93
67603;DHT22;54417;47.454;18.918;2024-03-02T08:04:07;9.52;93.93
67603;DHT22;54417;47.454;18.918;2024-03-02T08:09:10;9.61;93.62
67603;DHT22;54417;47.454;18.918;2024-03-02T08:14:19;9.57;94.07
67603;DHT22;54417;47.454;18.918;2024-03-02T08:19:29;9.62;93.94
67603;DHT22;54417;47.454;18.918;2024-03-02T08:24:38;9.71;93.68
67603;DHT22;54417;47.454;18.918;2024-03-02T08:29:49;9.64;93.72
67603;DHT22;54417;47.454;18.918;2024-03-02T08:34:54;9.70;93.72
67603;DHT22;54417;47.454;18.918;2024-03-02T08:39:58;9.68;94.01
67603;DHT22;54417;47.454;18.918;2024-03-02T08:45:08;9.67;94.60
67603;DHT22;54417;47.454;18.918;2024-03-02T08:50:18;9.68;94.11
67603;DHT22;54417;47.454;18.918;2024-03-02T08:55:27;9.68;94.17
67603;DHT22;54417;47.454;18.918;2024-03-02T09:00:36;9.75;94.33
67603;DHT22;54417;47.454;18.918;2024-03-02T09:05:46;9.77;94.60
67603;DHT22;54417;47.454;18.918;2024-03-02T09:10:55;9.79;94.59
67603;DHT22;54417;47.454;18.918;2024-03-02T09:15:59;9.87;94.21
67603;DHT22;54417;47.454;18.918;2024-03-02T09:21:05;9.99;93.88
67603;DHT22;54417;47.454;18.918;2024-03-02T09:26:14;9.92;93.56
67603;DHT22;54417;47.454;18.918;2024-03-02T09:31:25;9.98;93.43
67603;DHT22;54417;47.454;18.918;2024-03-02T09:36:30;9.85;93.89
67603;DHT22;54417;47.454;18.918;2024-03-02T09:41:39;9.99;93.71
67603;DHT22;54417;47.454;18.918;2024-03-02T09:46:48;9.89;93.56
67603;DHT22;54417;47.454;18.918;2024-03-02T09:51:59;9.91;93.19
67603;DHT22;54417;47.454;18.918;2024-03-02T09:57:08;9.81;93.54
67603;DHT22;54417;47.454;18.918;2024-03-02T10:02:17;9.91;93.41
67603;DHT22;54417;47.454;18.918;2024-03-02T10:07:22;9.98;94.01
67603;DHT22;54417;47.454;18.918;2024-03-02T10:12:31;10.02;93.68
67603;DHT22;54417;47.454;18.918;2024-03-02T10:17:40;9.92;93.23
67603;DHT22;54417;47.454;18.918;2024-03-02T10:22:50;10.12;93.13
67603;DHT22;54417;47.454;18.918;2024-03-02T10:27:59;10.23;92.86
67603;DHT22;54417;47.454;18.918;2024-03-02T10:33:04;10.33;92.40
67603;DHT22;54417;47.454;18.918;2024-03-02T10:38:11;10.30;92.20
67603;DHT22;54417;47.454;18.918;2024-03-02T10:43:20;10.33;92.38
67603;DHT22;54417;47.454;18.918;2024-03-02T10:48:30;10.32;92.36
67603;DHT22;54417;47.454;18.918;2024-03-02T10:53:41;10.20;92.07
67603;DHT22;54417;47.454;18.918;2024-03-02T10:58:51;10.25;92.97
67603;DHT22;54417;47.454;18.918;2024-03-02T11:04:02;10.46;92.45
67603;DHT22;54417;47.454;18.918;2024-03-02T11:09:14;10.45;91.93
67603;DHT22;54417;47.454;18.918;2024-03-02T11:14:25;10.67;91.68
67603;DHT22;54417;47.454;18.918;2024-03-02T11:19:34;10.87;91.41
67603;DHT22;54417;47.454;18.918;2024-03-02T11:24:52;10.57;91.10
67603;DHT22;54417;47.454;18.918;2024-03-02T11:30:01;10.67;90.60
67603;DHT22;54417;47.454;18.918;2024-03-02T11:35:10;10.63;91.04
67603;DHT22;54417;47.454;18.918;2024-03-02T11:40:21;10.97;91.29
67603;DHT22;54417;47.454;18.918;2024-03-02T11:45:30;11.26;90.45
67603;DHT22;54417;47.454;18.918;2024-03-02T11:50:42;11.28;89.46
67603;DHT22;54417;47.454;18.918;2024-03-02T11:55:55;11.19;89.12
67603;DHT22;54417;47.454;18.918;2024-03-02T12:00:58;10.85;90.08
67603;DHT22;54417;47.454;18.918;2024-03-02T12:06:03;10.95;89.87
67603;DHT22;54417;47.454;18.918;2024-03-02T12:11:13;11.15;90.33
67603;DHT22;54417;47.454;18.918;2024-03-02T12:16:23;11.52;89.09
67603;DHT22;54417;47.454;18.918;2024-03-02T12:21:27;11.58;87.57
67603;DHT22;54417;47.454;18.918;2024-03-02T12:26:32;11.63;87.99
67603;DHT22;54417;47.454;18.918;2024-03-02T12:31:42;11.58;88.53
67603;DHT22;54417;47.454;18.918;2024-03-02T12:36:46;11.47;87.94
67603;DHT22;54417;47.454;18.918;2024-03-02T12:41:53;11.79;87.07
67603;DHT22;54417;47.454;18.918;2024-03-02T12:46:57;11.80;87.30
67603;DHT22;54417;47.454;18.918;2024-03-02T12:52:04;11.81;87.69
67603;DHT22;54417;47.454;18.918;2024-03-02T12:57:18;11.51;88.12
67603;DHT22;54417;47.454;18.918;2024-03-02T13:02:21;11.26;88.11
67603;DHT22;54417;47.454;18.918;2024-03-02T13:07:30;11.15;89.13
67603;DHT22;54417;47.454;18.918;2024-03-02T13:12:42;11.05;88.87
67603;DHT22;54417;47.454;18.918;2024-03-02T13:17:46;10.98;90.13
67603;DHT22;54417;47.454;18.918;2024-03-02T13:22:55;10.98;89.93
67603;DHT22;54417;47.454;18.918;2024-03-02T13:28:05;10.78;89.94
67603;DHT22;54417;47.454;18.918;2024-03-02T13:33:10;10.68;90.54
67603;DHT22;54417;47.454;18.918;2024-03-02T13:38:20;10.49;90.80
67603;DHT22;54417;47.454;18.918;2024-03-02T13:43:30;10.49;91.79
67603;DHT22;54417;47.454;18.918;2024-03-02T13:48:34;10.33;91.73
67603;DHT22;54417;47.454;18.918;2024-03-02T13:53:43;10.19;92.26
67603;DHT22;54417;47.454;18.918;2024-03-02T13:58:54;10.03;92.79
67603;DHT22;54417;47.454;18.918;2024-03-02T14:04:02;9.95;92.83
67603;DHT22;54417;47.454;18.918;2024-03-02T14:09:11;10.01;93.27
67603;DHT22;54417;47.454;18.918;2024-03-02T14:14:22;9.95;93.43
67603;DHT22;54417;47.454;18.918;2024-03-02T14:19:26;9.89;93.80
67603;DHT22;54417;47.454;18.918;2024-03-02T14:24:35;9.87;93.77
67603;DHT22;54417;47.454;18.918;2024-03-02T14:29:40;9.84;93.36
67603;DHT22;54417;47.454;18.918;2024-03-02T14:34:49;9.77;93.70
67603;DHT22;54417;47.454;18.918;2024-03-02T14:39:58;9.64;93.88
67603;DHT22;54417;47.454;18.918;2024-03-02T14:45:05;9.62;94.52
67603;DHT22;54417;47.454;18.918;2024-03-02T14:50:13;9.67;94.29
67603;DHT22;54417;47.454;18.918;2024-03-02T14:55:24;9.58;94.41
67603;DHT22;54417;47.454;18.918;2024-03-02T15:00:34;9.40;95.09
67603;DHT22;54417;47.454;18.918;2024-03-02T15:05:43;9.48;95.14
67603;DHT22;54417;47.454;18.918;2024-03-02T15:10:48;9.61;94.90
67603;DHT22;54417;47.454;18.918;2024-03-02T15:15:58;9.58;95.11
67603;DHT22;54417;47.454;18.918;2024-03-02T15:21:02;9.67;94.97
67603;DHT22;54417;47.454;18.918;2024-03-02T15:26:11;9.71;95.04
67603;DHT22;54417;47.454;18.918;2024-03-02T15:31:21;9.81;94.28
67603;DHT22;54417;47.454;18.918;2024-03-02T15:36:30;9.79;94.08
67603;DHT22;54417;47.454;18.918;2024-03-02T15:41:39;9.60;94.51
67603;DHT22;54417;47.454;18.918;2024-03-02T15:46:44;9.58;94.90
67603;DHT22;54417;47.454;18.918;2024-03-02T15:51:53;9.73;94.16
67603;DHT22;54417;47.454;18.918;2024-03-02T15:56:57;9.75;93.89
67603;DHT22;54417;47.454;18.918;2024-03-02T16:02:03;9.74;94.00
67603;DHT22;54417;47.454;18.918;2024-03-02T16:07:12;9.58;94.36
67603;DHT22;54417;47.454;18.918;2024-03-02T16:12:16;9.48;94.64
67603;DHT22;54417;47.454;18.918;2024-03-02T16:17:26;9.54;94.64
67603;DHT22;54417;47.454;18.918;2024-03-02T16:22:30;9.52;94.84
67603;DHT22;54417;47.454;18.918;2024-03-02T16:27:39;9.40;95.07
67603;DHT22;54417;47.454;18.918;2024-03-02T16:32:52;9.40;95.00
67603;DHT22;54417;47.454;18.918;2024-03-02T16:37:56;9.31;95.41
67603;DHT22;54417;47.454;18.918;2024-03-02T16:43:04;9.40;95.24
67603;DHT22;54417;47.454;18.918;2024-03-02T16:48:10;9.33;95.59
67603;DHT22;54417;47.454;18.918;2024-03-02T16:53:14;9.36;95.80
67603;DHT22;54417;47.454;18.918;2024-03-02T16:58:24;9.37;95.60
67603;DHT22;54417;47.454;18.918;2024-03-02T17:03:34;9.47;95.77
67603;DHT22;54417;47.454;18.918;2024-03-02T17:08:43;9.50;95.02
67603;DHT22;54417;47.454;18.918;2024-03-02T17:13:47;9.47;95.56
67603;DHT22;54417;47.454;18.918;2024-03-02T17:18:56;9.34;95.88
67603;DHT22;54417;47.454;18.918;2024-03-02T17:24:00;9.34;96.02
67603;DHT22;54417;47.454;18.918;2024-03-02T17:29:10;9.34;96.12
67603;DHT22;54417;47.454;18.918;2024-03-02T17:34:20;9.34;95.93
67603;DHT22;54417;47.454;18.918;2024-03-02T17:39:31;9.37;95.66
67603;DHT22;54417;47.454;18.918;2024-03-02T17:44:35;9.44;95.59
67603;DHT22;54417;47.454;18.918;2024-03-02T17:49:45;9.37;95.55
67603;DHT22;54417;47.454;18.918;2024-03-02T17:54:54;9.33;95.64
67603;DHT22;54417;47.454;18.918;2024-03-02T17:59:58;9.27;95.99
67603;DHT22;54417;47.454;18.918;2024-03-02T18:05:09;9.30;95.87
67603;DHT22;54417;47.454;18.918;2024-03-02T18:10:13;9.30;96.13
67603;DHT22;54417;47.454;18.918;2024-03-02T18:15:17;9.39;95.47
67603;DHT22;54417;47.454;18.918;2024-03-02T18:20:27;9.37;95.65
67603;DHT22;54417;47.454;18.918;2024-03-02T18:25:35;9.33;95.61
67603;DHT22;54417;47.454;18.918;2024-03-02T18:30:39;9.39;95.35
67603;DHT22;54417;47.454;18.918;2024-03-02T18:35:49;9.26;95.55
67603;DHT22;54417;47.454;18.918;2024-03-02T18:40:58;9.24;95.87
67603;DHT22;54417;47.454;18.918;2024-03-02T18:46:09;9.22;95.96
67603;DHT22;54417;47.454;18.918;2024-03-02T18:51:21;9.23;95.93
67603;DHT22;54417;47.454;18.918;2024-03-02T18:56:25;9.16;95.83
67603;DHT22;54417;47.454;18.918;2024-03-02T19:01:29;9.26;95.84
67603;DHT22;54417;47.454;18.918;2024-03-02T19:06:39;9.27;95.81
67603;DHT22;54417;47.454;18.918;2024-03-02T19:11:43;9.10;96.12
67603;DHT22;54417;47.454;18.918;2024-03-02T19:16:52;9.24;95.69
67603;DHT22;54417;47.454;18.918;2024-03-02T19:22:02;9.26;95.60
67603;DHT22;54417;47.454;18.918;2024-03-02T19:27:18;9.20;95.85
67603;DHT22;54417;47.454;18.918;2024-03-02T19:32:27;9.22;95.95
67603;DHT22;54417;47.454;18.918;2024-03-02T19:37:32;9.22;96.08
67603;DHT22;54417;47.454;18.918;2024-03-02T19:42:44;9.40;95.57
67603;DHT22;54417;47.454;18.918;2024-03-02T19:47:49;9.34;95.30
67603;DHT22;54417;47.454;18.918;2024-03-02T19:52:59;9.36;94.92
67603;DHT22;54417;47.454;18.918;2024-03-02T19:58:05;9.24;95.40
67603;DHT22;54417;47.454;18.918;2024-03-02T20:03:13;9.33;95.19
67603;DHT22;54417;47.454;18.918;2024-03-02T20:08:23;9.33;95.04
67603;DHT22;54417;47.454;18.918;2024-03-02T20:13:33;9.22;95.63
67603;DHT22;54417;47.454;18.918;2024-03-02T20:18:37;9.18;95.71
67603;DHT22;54417;47.454;18.918;2024-03-02T20:23:47;9.16;95.78
67603;DHT22;54417;47.454;18.918;2024-03-02T20:28:56;9.15;95.91
67603;DHT22;54417;47.454;18.918;2024-03-02T20:34:05;9.13;95.89
67603;DHT22;54417;47.454;18.918;2024-03-02T20:39:15;9.13;95.66
67603;DHT22;54417;47.454;18.918;2024-03-02T20:44:25;9.08;95.87
67603;DHT22;54417;47.454;18.918;2024-03-02T20:49:28;9.08;96.01
67603;DHT22;54417;47.454;18.918;2024-03-02T20:54:39;9.05;96.04
67603;DHT22;54417;47.454;18.918;2024-03-02T20:59:43;9.05;95.84
67603;DHT22;54417;47.454;18.918;2024-03-02T21:04:47;8.93;96.06
67603;DHT22;54417;47.454;18.918;2024-03-02T21:09:57;8.82;96.41
67603;DHT22;54417;47.454;18.918;2024-03-02T21:15:06;8.85;96.71
67603;DHT22;54417;47.454;18.918;2024-03-02T21:20:15;8.89;96.54
67603;DHT22;54417;47.454;18.918;2024-03-02T21:25:25;8.72;96.88
67603;DHT22;54417;47.454;18.918;2024-03-02T21:30:35;8.62;96.98
67603;DHT22;54417;47.454;18.918;2024-03-02T21:35:39;8.52;96.87
67603;DHT22;54417;47.454;18.918;2024-03-02T21:40:44;8.34;97.03
67603;DHT22;54417;47.454;18.918;2024-03-02T21:45:47;8.20;97.70
67603;DHT22;54417;47.454;18.918;2024-03-02T21:50:56;8.33;97.82
67603;DHT22;54417;47.454;18.918;2024-03-02T21:56:01;8.30;98.10
67603;DHT22;54417;47.454;18.918;2024-03-02T22:01:05;8.41;98.27
67603;DHT22;54417;47.454;18.918;2024-03-02T22:06:15;8.47;98.17
67603;DHT22;54417;47.454;18.918;2024-03-02T22:11:25;8.61;97.93
67603;DHT22;54417;47.454;18.918;2024-03-02T22:16:34;8.67;97.81
67603;DHT22;54417;47.454;18.918;2024-03-02T22:21:43;8.82;97.04
67603;DHT22;54417;47.454;18.918;2024-03-02T22:26:48;8.85;97.03
67603;DHT22;54417;47.454;18.918;2024-03-02T22:31:52;8.85;96.76
67603;DHT22;54417;47.454;18.918;2024-03-02T22:36:56;8.95;96.46
67603;DHT22;54417;47.454;18.918;2024-03-02T22:42:06;8.95;96.49
67603;DHT22;54417;47.454;18.918;2024-03-02T22:47:15;8.99;96.13
67603;DHT22;54417;47.454;18.918;2024-03-02T22:52:23;8.85;96.51
67603;DHT22;54417;47.454;18.918;2024-03-02T22:57:29;8.72;96.21
67603;DHT22;54417;47.454;18.918;2024-03-02T23:02:37;8.55;96.88
67603;DHT22;54417;47.454;18.918;2024-03-02T23:07:41;8.45;97.01
67603;DHT22;54417;47.454;18.918;2024-03-02T23:12:51;8.23;97.19
67603;DHT22;54417;47.454;18.918;2024-03-02T23:18:00;7.94;97.78
67603;DHT22;54417;47.454;18.918;2024-03-02T23:23:09;7.76;98.21
67603;DHT22;54417;47.454;18.918;2024-03-02T23:28:15;7.45;98.01
67603;DHT22;54417;47.454;18.918;2024-03-02T23:33:18;7.23;98.32
67603;DHT22;54417;47.454;18.918;2024-03-02T23:38:28;7.35;99.99
67603;DHT22;54417;47.454;18.918;2024-03-02T23:43:38;7.34;99.93
67603;DHT22;54417;47.454;18.918;2024-03-02T23:48:42;7.52;99.99
67603;DHT22;54417;47.454;18.918;2024-03-02T23:53:45;7.71;99.99
67603;DHT22;54417;47.454;18.918;2024-03-02T23:58:55;7.76;99.99
